Time;durP1;ratioP1;P1;durP2;ratioP2;P2;SDS_P1;SDS_P2;PMS_P1;PMS_P2;Temp;Humidity;BMP_temperature;BMP_pressure;BME280_temperature;BME280_humidity;BME280_pressure;Samples;Min_cycle;Max_cycle;Signal;HPM_P1;HPM_P2
2022/06/25 00:01:32;;;;;;;5.72;2.53;;;;;;;19.45;67.90;99293.25;5040994;28;20044;-57
2022/06/25 00:07:19;;;;;;;5.45;2.53;;;;;;;19.45;68.13;99297.66;5055777;28;20098;-56
2022/06/25 00:10:06;;;;;;;5.15;2.47;;;;;;;19.42;68.36;99301.22;5041035;28;20047;-55
2022/06/25 00:12:52;;;;;;;3.00;2.22;;;;;;;19.41;68.14;99296.88;5041028;28;20132;-56
2022/06/25 00:15:36;;;;;;;4.40;2.13;;;;;;;19.39;68.34;99297.84;5040558;28;20190;-56
2022/06/25 00:18:20;;;;;;;6.30;1.90;;;;;;;19.40;68.27;99295.16;5055822;28;20068;-55
2022/06/25 00:21:03;;;;;;;4.63;2.50;;;;;;;19.38;68.34;99299.63;5055311;28;20522;-57
2022/06/25 00:23:47;;;;;;;4.13;1.98;;;;;;;19.37;68.17;99300.53;5055444;28;20048;-56
2022/06/25 00:26:31;;;;;;;5.93;2.33;;;;;;;19.37;68.29;99304.91;5055532;28;20526;-56
2022/06/25 00:29:20;;;;;;;6.05;2.10;;;;;;;19.36;68.16;99311.94;5055270;28;20515;-57
2022/06/25 00:32:09;;;;;;;4.30;2.13;;;;;;;19.36;68.19;99305.81;5040608;28;20107;-57
2022/06/25 00:34:56;;;;;;;5.38;2.67;;;;;;;19.35;68.26;99312.84;5040412;28;20111;-57
2022/06/25 00:37:40;;;;;;;7.68;2.55;;;;;;;19.36;68.36;99314.56;5055238;28;20052;-57
2022/06/25 00:40:24;;;;;;;6.57;3.00;;;;;;;19.36;68.07;99309.31;5054984;28;20040;-57
2022/06/25 00:43:08;;;;;;;6.05;2.75;;;;;;;19.37;68.21;99315.41;5055444;28;20048;-57
2022/06/25 00:45:55;;;;;;;5.25;2.75;;;;;;;19.36;68.18;99316.31;5055097;28;20059;-57
2022/06/25 00:48:41;;;;;;;8.38;2.85;;;;;;;19.35;68.00;99320.72;5039590;28;20075;-56
2022/06/25 00:51:31;;;;;;;9.25;2.72;;;;;;;19.35;68.10;99317.22;5055066;28;20075;-57
2022/06/25 00:54:17;;;;;;;6.13;3.03;;;;;;;19.31;68.16;99317.31;5055271;28;20617;-56
2022/06/25 00:57:07;;;;;;;6.57;2.97;;;;;;;19.31;68.22;99324.34;5039750;28;20534;-57
2022/06/25 00:59:52;;;;;;;8.32;3.40;;;;;;;19.30;68.20;99320.88;5055391;28;20503;-57
2022/06/25 01:02:39;;;;;;;8.90;3.00;;;;;;;19.29;68.17;99320.91;5033974;28;20080;-56
2022/06/25 01:05:23;;;;;;;5.55;3.20;;;;;;;19.27;68.05;99320.97;5033646;28;20407;-57
2022/06/25 01:08:07;;;;;;;5.72;2.70;;;;;;;19.28;68.26;99324.44;5034797;28;20149;-55
2022/06/25 01:10:52;;;;;;;11.15;3.22;;;;;;;19.26;68.19;99324.50;5034743;28;20048;-56
2022/06/25 01:13:36;;;;;;;6.10;3.00;;;;;;;19.28;68.13;99324.44;5034601;28;20060;-56
2022/06/25 01:16:21;;;;;;;6.55;2.42;;;;;;;19.27;68.11;99331.47;5034602;28;20053;-56
2022/06/25 01:19:10;;;;;;;5.65;2.70;;;;;;;19.25;68.05;99328.03;5033842;28;20555;-57
2022/06/25 01:22:00;;;;;;;3.20;2.13;;;;;;;19.25;68.13;99332.41;5033606;28;20413;-58
2022/06/25 01:24:47;;;;;;;4.10;2.22;;;;;;;19.26;68.19;99335.00;5033747;28;20527;-57
2022/06/25 01:27:31;;;;;;;6.13;2.55;;;;;;;19.25;68.27;99335.91;5033641;28;20511;-55
2022/06/25 01:30:20;;;;;;;2.58;2.17;;;;;;;19.25;68.13;99330.66;5034119;28;20044;-58
2022/06/25 01:33:09;;;;;;;9.25;2.42;;;;;;;19.25;68.28;99335.03;5034599;28;20184;-57
2022/06/25 01:35:59;;;;;;;4.22;2.35;;;;;;;19.23;68.22;99342.97;5033798;28;20122;-56
2022/06/25 01:38:45;;;;;;;2.80;2.15;;;;;;;19.22;68.09;99345.66;5032880;28;20041;-57
2022/06/25 01:41:29;;;;;;;5.43;1.88;;;;;;;19.22;68.21;99350.91;5033760;28;20056;-57
2022/06/25 01:44:16;;;;;;;5.03;2.33;;;;;;;19.17;68.34;99346.66;5034144;28;20405;-57
2022/06/25 01:47:00;;;;;;;4.10;2.53;;;;;;;19.17;68.31;99344.03;5033452;28;20057;-57
2022/06/25 01:49:43;;;;;;;3.72;2.10;;;;;;;19.17;68.33;99346.66;5034210;28;20040;-56
2022/06/25 01:52:28;;;;;;;4.95;2.13;;;;;;;19.16;68.22;99350.19;5032759;28;20079;-56
2022/06/25 01:55:13;;;;;;;5.05;2.38;;;;;;;19.14;68.32;99349.38;5034612;28;20045;-55
2022/06/25 01:58:00;;;;;;;6.35;2.50;;;;;;;19.15;68.28;99353.72;5033467;28;20472;-56
2022/06/25 02:00:43;;;;;;;6.40;2.65;;;;;;;19.14;68.36;99352.00;5034011;28;20068;-56
2022/06/25 02:03:27;;;;;;;5.45;2.40;;;;;;;19.14;68.14;99356.41;5050367;28;20103;-56
2022/06/25 02:06:11;;;;;;;5.53;2.67;;;;;;;19.12;68.20;99356.44;5053928;28;20056;-56
2022/06/25 02:08:55;;;;;;;3.22;2.42;;;;;;;19.14;68.37;99361.66;5053762;28;20427;-56
2022/06/25 02:11:42;;;;;;;2.35;1.90;;;;;;;19.13;68.28;99367.81;5053758;28;20175;-57
2022/06/25 02:14:29;;;;;;;6.03;2.25;;;;;;;19.12;68.04;99356.44;5053375;28;20052;-58
2022/06/25 02:17:13;;;;;;;3.83;2.15;;;;;;;19.13;68.22;99370.44;5053485;28;20098;-57
2022/06/25 02:19:57;;;;;;;3.45;2.20;;;;;;;19.12;68.45;99372.19;5053203;28;20091;-57
2022/06/25 02:22:41;;;;;;;3.53;2.03;;;;;;;19.11;68.28;99367.84;5053254;28;20043;-58
2022/06/25 02:25:28;;;;;;;7.25;2.83;;;;;;;19.10;68.35;99378.41;5053626;28;20052;-57
2022/06/25 02:28:18;;;;;;;4.60;2.60;;;;;;;19.10;68.45;99368.75;5052940;28;20412;-57
2022/06/25 02:31:02;;;;;;;5.30;2.85;;;;;;;19.08;68.27;99372.34;5053710;28;20056;-59
2022/06/25 02:33:49;;;;;;;5.78;2.63;;;;;;;19.10;68.59;99375.78;5053164;28;20043;-57
2022/06/25 02:36:33;;;;;;;5.28;2.55;;;;;;;19.09;68.25;99385.41;5053400;28;20047;-56
2022/06/25 02:39:18;;;;;;;3.13;2.38;;;;;;;19.07;68.23;99379.38;5053665;28;20666;-56
2022/06/25 02:42:02;;;;;;;3.53;2.50;;;;;;;19.05;68.22;99383.78;5053640;28;20400;-56
2022/06/25 02:44:48;;;;;;;5.22;3.03;;;;;;;19.05;68.32;99378.53;5038194;28;20459;-56
2022/06/25 02:47:33;;;;;;;4.45;2.78;;;;;;;19.05;68.36;99385.53;5053303;28;20127;-55
2022/06/25 02:50:20;;;;;;;3.70;2.63;;;;;;;19.05;68.18;99377.66;5038386;28;20052;-56
2022/06/25 02:53:04;;;;;;;4.97;2.72;;;;;;;19.03;68.34;99390.84;5053134;28;20048;-56
2022/06/25 02:58:54;;;;;;;5.63;2.80;;;;;;;19.03;68.18;99393.47;5053289;28;20460;-57
2022/06/25 03:01:38;;;;;;;6.30;2.92;;;;;;;19.01;68.54;99392.66;5053038;28;20084;-57
2022/06/25 03:04:24;;;;;;;3.35;2.40;;;;;;;18.99;68.37;99395.34;5055330;28;20098;-57
2022/06/25 03:07:10;;;;;;;5.05;3.08;;;;;;;18.99;68.29;99395.34;5042288;28;20095;-56
2022/06/25 03:09:55;;;;;;;3.95;2.70;;;;;;;18.99;68.22;99391.84;5042136;28;20036;-55
2022/06/25 03:12:41;;;;;;;7.72;3.50;;;;;;;18.98;68.39;99398.88;5057266;28;20051;-55
2022/06/25 03:15:25;;;;;;;4.72;2.45;;;;;;;18.98;68.25;99400.63;5056904;28;20060;-55
2022/06/25 03:18:09;;;;;;;7.72;2.80;;;;;;;18.99;68.15;99404.97;5056981;28;20056;-56
2022/06/25 03:20:53;;;;;;;4.22;2.47;;;;;;;18.99;68.29;99404.97;5057124;28;20044;-56
2022/06/25 03:23:37;;;;;;;5.95;2.60;;;;;;;18.97;68.27;99409.41;5041442;28;20060;-57
2022/06/25 03:26:21;;;;;;;5.32;2.33;;;;;;;18.95;68.29;99404.22;5056746;28;20116;-57
2022/06/25 03:29:05;;;;;;;8.10;2.92;;;;;;;18.95;68.13;99404.22;5056333;28;20059;-57
2022/06/25 03:31:49;;;;;;;6.00;2.95;;;;;;;18.97;68.39;99409.41;5056629;28;20558;-57
2022/06/25 03:34:34;;;;;;;3.45;2.38;;;;;;;18.98;68.13;99408.50;5056880;28;20519;-56
2022/06/25 03:37:20;;;;;;;7.20;2.75;;;;;;;18.97;68.23;99414.66;5056724;28;20483;-57
2022/06/25 03:40:05;;;;;;;5.75;2.72;;;;;;;18.96;68.31;99411.19;5056034;28;20087;-57
2022/06/25 03:42:52;;;;;;;7.18;2.80;;;;;;;18.97;68.27;99406.78;5056338;28;20389;-57
2022/06/25 03:45:38;;;;;;;4.35;2.83;;;;;;;18.96;68.17;99408.56;5056159;28;20106;-55
2022/06/25 03:48:22;;;;;;;3.78;2.63;;;;;;;18.95;68.41;99413.84;5055929;28;20051;-56
2022/06/25 03:51:09;;;;;;;5.28;2.42;;;;;;;18.93;68.14;99418.22;5056502;28;20053;-56
2022/06/25 03:53:54;;;;;;;8.57;2.70;;;;;;;18.91;68.26;99413.03;5056245;28;20107;-56
2022/06/25 03:56:38;;;;;;;3.40;2.63;;;;;;;18.91;68.30;99417.44;5054777;28;20059;-57
2022/06/25 03:59:24;;;;;;;3.90;2.38;;;;;;;18.90;68.29;99416.56;5056116;28;20047;-57
2022/06/25 04:02:08;;;;;;;4.88;2.92;;;;;;;18.89;68.19;99417.47;5055700;28;20056;-57
2022/06/25 04:04:56;;;;;;;4.28;2.53;;;;;;;18.90;68.38;99420.97;5040943;28;20420;-57
2022/06/25 04:07:40;;;;;;;6.47;2.80;;;;;;;18.87;68.12;99421.88;5056050;28;20047;-57
2022/06/25 04:10:24;;;;;;;7.53;2.63;;;;;;;18.85;68.26;99421.06;5055441;28;20095;-57
2022/06/25 04:13:08;;;;;;;5.65;2.95;;;;;;;18.86;68.44;99422.78;5041030;28;20147;-56
2022/06/25 04:15:55;;;;;;;4.03;2.33;;;;;;;18.85;68.26;99435.06;5053332;28;20048;-57
2022/06/25 04:18:40;;;;;;;6.80;3.10;;;;;;;18.85;68.29;99431.56;5041162;28;20514;-55
2022/06/25 04:21:29;;;;;;;5.05;3.03;;;;;;;18.83;68.36;99434.25;5055739;28;20071;-56
2022/06/25 04:24:15;;;;;;;6.82;3.22;;;;;;;18.82;68.33;99427.28;5040774;28;20063;-55
2022/06/25 04:27:03;;;;;;;4.63;2.70;;;;;;;18.81;68.32;99433.44;5055591;28;20459;-55
2022/06/25 04:29:47;;;;;;;3.35;2.25;;;;;;;18.80;68.23;99431.69;5055443;28;20476;-55
2022/06/25 04:32:31;;;;;;;11.25;3.20;;;;;;;18.78;68.37;99435.28;5055298;28;20048;-56
2022/06/25 04:35:18;;;;;;;4.18;3.22;;;;;;;18.77;68.34;99437.03;5055512;28;20044;-56
2022/06/25 04:38:04;;;;;;;5.28;2.85;;;;;;;18.76;68.38;99437.97;5040329;28;20047;-55
2022/06/25 04:40:48;;;;;;;6.97;2.85;;;;;;;18.75;68.38;99444.13;5055109;28;20420;-59
2022/06/25 04:43:32;;;;;;;4.25;2.88;;;;;;;18.75;68.36;99438.88;5055464;28;20110;-57
2022/06/25 04:46:16;;;;;;;8.43;3.30;;;;;;;18.74;68.33;99445.00;5055285;28;20052;-57
2022/06/25 04:49:00;;;;;;;6.55;2.80;;;;;;;18.73;68.09;99443.28;5055536;28;20404;-57
2022/06/25 04:51:44;;;;;;;3.92;2.50;;;;;;;18.72;68.29;99444.19;5055216;28;20458;-57
2022/06/25 04:54:28;;;;;;;5.55;2.67;;;;;;;18.70;68.35;99446.84;5054645;28;20149;-57
2022/06/25 04:57:14;;;;;;;3.45;2.45;;;;;;;18.71;68.28;99442.47;5054554;28;20047;-57
2022/06/25 04:59:59;;;;;;;6.53;3.17;;;;;;;18.69;68.20;99452.13;5054528;28;20048;-57
2022/06/25 05:02:43;;;;;;;12.88;3.45;;;;;;;18.68;68.30;99459.16;5054526;28;20110;-57
2022/06/25 05:05:27;;;;;;;3.03;2.38;;;;;;;18.67;68.25;99456.56;5055043;28;20392;-57
2022/06/25 05:08:11;;;;;;;6.88;2.88;;;;;;;18.65;68.47;99456.63;5054857;28;20103;-57
2022/06/25 05:10:55;;;;;;;10.95;3.38;;;;;;;18.65;68.04;99448.75;5054703;28;20098;-57
2022/06/25 05:13:39;;;;;;;10.55;3.42;;;;;;;18.67;68.46;99451.31;5039938;28;20052;-57
2022/06/25 05:16:23;;;;;;;10.70;3.60;;;;;;;18.66;68.21;99454.84;5054697;28;20043;-56
2022/06/25 05:19:07;;;;;;;5.85;3.13;;;;;;;18.64;68.25;99456.63;5054572;28;20519;-56
2022/06/25 05:21:51;;;;;;;4.78;3.03;;;;;;;18.63;68.22;99470.66;5054184;28;20097;-56
2022/06/25 05:24:35;;;;;;;8.60;3.08;;;;;;;18.62;68.30;99459.31;5054057;28;20136;-57
2022/06/25 05:27:19;;;;;;;8.20;3.30;;;;;;;18.60;68.43;99460.28;5053834;28;20123;-56
2022/06/25 05:30:05;;;;;;;6.18;3.42;;;;;;;18.61;68.09;99459.38;5054720;28;20051;-55
2022/06/25 05:32:49;;;;;;;6.88;3.42;;;;;;;18.62;68.26;99461.06;5039045;28;20051;-55
2022/06/25 05:35:34;;;;;;;8.43;2.80;;;;;;;18.60;68.25;99470.78;5054180;28;20047;-57
2022/06/25 05:38:18;;;;;;;7.00;3.65;;;;;;;18.61;68.17;99467.25;5054015;28;20068;-57
2022/06/25 05:41:08;;;;;;;7.82;3.10;;;;;;;18.61;68.21;99464.63;5054101;28;20462;-57
2022/06/25 05:43:51;;;;;;;11.93;3.53;;;;;;;18.61;68.29;99465.47;5054462;28;20048;-56
2022/06/25 05:46:35;;;;;;;10.23;2.97;;;;;;;18.63;68.21;99468.03;5053940;28;20051;-56
2022/06/25 05:49:19;;;;;;;10.65;3.78;;;;;;;18.63;68.42;99475.91;5053803;28;20091;-55
2022/06/25 05:52:06;;;;;;;7.85;3.63;;;;;;;18.64;68.19;99472.38;5053500;28;20051;-56
2022/06/25 05:54:51;;;;;;;11.77;4.13;;;;;;;18.66;68.26;99478.47;5039017;28;20087;-56
2022/06/25 05:57:35;;;;;;;14.90;3.75;;;;;;;18.66;68.06;99476.72;5053607;28;20087;-55
2022/06/25 06:00:19;;;;;;;7.38;2.67;;;;;;;18.67;68.10;99480.19;5053471;28;20040;-56
2022/06/25 06:03:02;;;;;;;9.27;3.08;;;;;;;18.66;68.25;99481.97;5053694;28;20072;-56
2022/06/25 06:05:46;;;;;;;9.00;3.25;;;;;;;18.67;68.15;99485.44;5053821;28;20052;-57
2022/06/25 06:08:30;;;;;;;12.80;3.03;;;;;;;18.67;68.01;99490.69;5054064;28;20531;-57
2022/06/25 06:11:14;;;;;;;7.80;3.33;;;;;;;18.66;68.03;99491.59;5053653;28;20099;-57
2022/06/25 06:13:58;;;;;;;12.07;3.45;;;;;;;18.64;67.97;99501.25;5053749;28;20111;-57
2022/06/25 06:16:42;;;;;;;6.78;3.30;;;;;;;18.66;68.60;99497.72;5053606;28;20565;-57
2022/06/25 06:19:26;;;;;;;9.25;3.42;;;;;;;18.66;68.09;99502.09;5053694;28;20106;-57
2022/06/25 06:22:10;;;;;;;12.15;3.15;;;;;;;18.65;68.03;99497.72;5053230;28;20043;-57
2022/06/25 06:24:54;;;;;;;12.00;3.30;;;;;;;18.64;67.94;99502.13;5053711;28;20516;-57
2022/06/25 06:27:38;;;;;;;10.85;3.63;;;;;;;18.66;68.06;99509.94;5053828;28;20090;-56
2022/06/25 06:30:22;;;;;;;6.63;3.20;;;;;;;18.65;68.03;99516.97;5053340;28;20561;-57
2022/06/25 06:33:06;;;;;;;8.98;3.80;;;;;;;18.66;67.97;99515.19;5053046;28;20083;-57
2022/06/25 06:35:51;;;;;;;6.57;2.88;;;;;;;18.64;68.10;99502.13;5052974;28;20052;-57
2022/06/25 06:38:35;;;;;;;6.70;2.63;;;;;;;18.66;68.00;99507.34;5052967;28;20044;-57
2022/06/25 06:41:19;;;;;;;4.68;2.25;;;;;;;18.65;68.20;99506.47;5053237;28;20115;-56
2022/06/25 06:44:03;;;;;;;3.67;2.42;;;;;;;18.65;67.89;99502.97;5053565;28;20039;-57
2022/06/25 06:46:47;;;;;;;7.95;2.63;;;;;;;18.65;67.99;99505.59;5053127;28;20450;-56
2022/06/25 06:49:31;;;;;;;7.10;2.15;;;;;;;18.65;67.98;99502.97;5053281;28;20040;-56
2022/06/25 06:52:15;;;;;;;5.70;2.53;;;;;;;18.64;67.80;99510.00;5053077;28;20409;-56
2022/06/25 06:55:01;;;;;;;7.90;2.80;;;;;;;18.65;68.08;99510.84;5053484;28;20454;-55
2022/06/25 06:57:45;;;;;;;5.55;2.40;;;;;;;18.66;68.10;99516.09;5053273;28;20051;-55
2022/06/25 07:00:29;;;;;;;5.90;2.38;;;;;;;18.66;67.98;99515.19;5053372;28;20051;-55
2022/06/25 07:03:13;;;;;;;4.75;2.72;;;;;;;18.68;67.90;99516.03;5052710;28;20059;-55
2022/06/25 07:05:57;;;;;;;7.95;2.85;;;;;;;18.69;68.00;99520.38;5053083;28;20048;-57
2022/06/25 07:08:41;;;;;;;4.70;2.13;;;;;;;18.70;68.01;99515.06;5038024;28;20053;-57
2022/06/25 07:11:28;;;;;;;5.88;2.92;;;;;;;18.75;68.09;99521.97;5053305;28;20043;-57
2022/06/25 07:14:13;;;;;;;7.28;2.63;;;;;;;18.76;68.07;99516.72;5038067;28;20525;-55
2022/06/25 07:16:57;;;;;;;5.82;2.75;;;;;;;18.77;67.93;99513.16;5052633;28;20124;-55
2022/06/25 07:19:41;;;;;;;6.78;2.90;;;;;;;18.78;67.96;99511.41;5052736;28;20083;-57
2022/06/25 07:22:25;;;;;;;11.57;2.72;;;;;;;18.79;68.05;99532.34;5053077;28;20184;-57
2022/06/25 07:25:13;;;;;;;3.55;2.35;;;;;;;18.81;67.89;99520.06;5053112;28;20099;-55
2022/06/25 07:27:57;;;;;;;8.23;2.70;;;;;;;18.83;68.33;99520.03;5038068;28;20405;-56
2022/06/25 07:30:41;;;;;;;4.80;2.08;;;;;;;18.83;68.01;99514.78;5052559;28;20048;-55
2022/06/25 07:33:26;;;;;;;4.35;2.03;;;;;;;18.85;68.35;99510.31;5052370;28;20530;-55
2022/06/25 07:36:10;;;;;;;5.68;2.28;;;;;;;18.84;68.32;99514.72;5052364;28;20137;-55
2022/06/25 07:38:54;;;;;;;5.82;2.42;;;;;;;18.84;68.04;99519.97;5052869;28;20048;-55
2022/06/25 07:41:38;;;;;;;3.95;2.17;;;;;;;18.85;68.04;99516.44;5052545;28;20055;-56
2022/06/25 07:44:21;;;;;;;7.78;2.50;;;;;;;18.85;67.93;99507.69;5052873;28;20581;-56
2022/06/25 07:47:05;;;;;;;9.02;3.30;;;;;;;18.85;67.99;99521.69;5037922;28;20099;-56
2022/06/25 07:52:52;;;;;;;7.78;2.35;;;;;;;18.86;68.14;99518.19;5055985;28;20052;-56
2022/06/25 07:55:39;;;;;;;5.75;2.08;;;;;;;18.89;68.25;99508.50;5056083;28;20112;-57
2022/06/25 07:58:27;;;;;;;5.68;2.28;;;;;;;18.89;68.11;99519.00;5055670;28;20051;-56
2022/06/25 08:01:15;;;;;;;4.85;2.25;;;;;;;18.90;67.74;99518.94;5056003;28;20072;-57
2022/06/25 08:04:02;;;;;;;4.10;2.60;;;;;;;18.91;67.97;99517.19;5040919;28;20415;-55
2022/06/25 08:06:47;;;;;;;7.50;2.50;;;;;;;18.92;68.07;99516.31;5041114;28;20122;-56
2022/06/25 08:09:34;;;;;;;5.22;2.20;;;;;;;18.93;67.88;99516.25;5041291;28;20052;-56
2022/06/25 08:12:18;;;;;;;6.28;2.55;;;;;;;18.94;68.07;99517.09;5041264;28;20064;-56
2022/06/25 08:15:02;;;;;;;7.57;1.95;;;;;;;18.93;68.15;99520.63;5054658;28;21909;-56
2022/06/25 08:17:46;;;;;;;4.05;1.92;;;;;;;18.94;68.15;99525.88;5040629;28;20411;-56
2022/06/25 08:20:31;;;;;;;3.55;1.80;;;;;;;18.93;68.17;99529.38;5055492;28;20051;-55
2022/06/25 08:23:16;;;;;;;2.67;2.10;;;;;;;18.94;68.08;99533.75;5055396;28;20155;-56
2022/06/25 08:26:00;;;;;;;2.70;1.80;;;;;;;18.95;68.03;99527.59;5040524;28;20056;-57
2022/06/25 08:28:44;;;;;;;3.83;2.35;;;;;;;18.97;67.84;99517.06;5055409;28;20098;-57
2022/06/25 08:31:29;;;;;;;3.92;1.92;;;;;;;18.98;67.81;99511.78;5040609;28;20048;-57
2022/06/25 08:34:13;;;;;;;7.80;2.22;;;;;;;18.98;67.98;99519.66;5055356;28;20091;-56
2022/06/25 08:36:56;;;;;;;6.63;2.33;;;;;;;18.99;67.94;99523.13;5055328;28;20070;-56
2022/06/25 08:39:40;;;;;;;4.40;2.00;;;;;;;19.03;68.20;99516.91;5055461;28;20060;-56
2022/06/25 08:42:24;;;;;;;5.72;2.00;;;;;;;19.06;68.25;99524.69;5055389;28;20098;-55
2022/06/25 08:45:09;;;;;;;6.22;2.28;;;;;;;19.06;68.05;99529.06;5055607;28;20052;-56
2022/06/25 08:47:58;;;;;;;8.75;2.08;;;;;;;19.07;67.76;99528.16;5040180;28;20186;-56
2022/06/25 08:50:50;;;;;;;6.22;2.20;;;;;;;19.08;68.08;99517.59;5040461;28;20404;-56
2022/06/25 08:53:46;;;;;;;6.35;2.17;;;;;;;19.09;67.81;99527.22;5040081;28;20052;-56
2022/06/25 08:56:31;;;;;;;5.65;2.35;;;;;;;19.08;68.02;99514.97;5054162;28;20554;-56
2022/06/25 08:59:16;;;;;;;4.45;2.38;;;;;;;19.07;68.04;99505.41;5054649;28;20074;-57
2022/06/25 09:02:00;;;;;;;4.75;2.13;;;;;;;19.07;68.08;99518.53;5054435;28;20135;-57
2022/06/25 09:04:44;;;;;;;2.70;1.92;;;;;;;19.08;68.02;99514.13;5054836;28;20389;-57
2022/06/25 09:07:28;;;;;;;3.97;2.10;;;;;;;19.09;68.06;99507.97;5054889;28;20171;-57
2022/06/25 09:10:19;;;;;;;5.45;2.17;;;;;;;19.09;68.16;99510.59;5054449;28;20048;-57
2022/06/25 09:13:08;;;;;;;7.03;2.72;;;;;;;19.09;68.05;99516.72;5039744;28;20111;-57
2022/06/25 09:15:52;;;;;;;6.47;2.10;;;;;;;19.10;67.83;99509.72;5054379;28;20107;-57
2022/06/25 09:18:36;;;;;;;5.85;2.22;;;;;;;19.08;68.09;99522.84;5054663;28;20132;-57
2022/06/25 09:21:20;;;;;;;4.53;2.17;;;;;;;19.07;67.88;99518.53;5054143;28;20511;-56
2022/06/25 09:24:04;;;;;;;3.15;2.00;;;;;;;19.09;68.17;99523.75;5054630;28;20110;-56
2022/06/25 09:26:51;;;;;;;;;;;;;;;19.07;67.94;99518.53;5054895;28;20055;-55
2022/06/25 09:29:57;;;;;;;3.50;2.17;;;;;;;19.07;67.80;99515.03;5054229;28;20059;-56
2022/06/25 09:32:46;;;;;;;6.15;2.67;;;;;;;19.07;68.01;99521.16;5054138;28;20046;-55
2022/06/25 09:35:38;;;;;;;5.32;2.45;;;;;;;19.07;68.13;99518.53;5038891;28;20087;-57
2022/06/25 09:38:24;;;;;;;6.15;2.20;;;;;;;19.07;68.05;99520.28;5039067;28;20044;-57
2022/06/25 09:41:09;;;;;;;4.30;2.58;;;;;;;19.07;68.13;99520.28;5053951;28;20048;-57
2022/06/25 09:43:53;;;;;;;2.92;2.10;;;;;;;19.09;68.19;99529.00;5053661;28;20051;-58
2022/06/25 09:47:01;;;;;;;6.93;2.67;;;;;;;19.07;68.13;99518.53;5054299;28;20048;-57
2022/06/25 09:49:45;;;;;;;7.75;2.80;;;;;;;19.08;68.17;99519.38;5053666;28;20102;-57
2022/06/25 09:52:31;;;;;;;6.22;2.50;;;;;;;19.09;68.00;99518.50;5053773;28;20048;-57
2022/06/25 09:55:15;;;;;;;5.55;2.70;;;;;;;19.11;68.28;99519.31;5053656;28;20075;-57
2022/06/25 09:58:01;;;;;;;3.80;2.30;;;;;;;19.11;68.17;99522.78;5053836;28;20102;-57
2022/06/25 10:00:45;;;;;;;5.25;2.47;;;;;;;19.13;68.21;99525.38;5039123;28;20055;-57
2022/06/25 10:03:31;;;;;;;2.70;1.98;;;;;;;19.15;67.84;99511.28;5038461;28;20059;-57
2022/06/25 10:06:25;;;;;;;5.53;2.20;;;;;;;19.14;68.20;99512.19;5054050;28;20052;-57
2022/06/25 10:09:09;;;;;;;;;;;;;;;19.14;67.93;99512.19;5052865;28;20067;-56
2022/06/25 10:11:54;;;;;;;11.85;2.90;;;;;;;19.14;67.96;99514.81;5054079;28;19963;-56
2022/06/25 10:14:40;;;;;;;3.75;2.00;;;;;;;19.14;68.10;99514.81;5038264;28;20071;-57
2022/06/25 10:17:24;;;;;;;4.28;2.20;;;;;;;19.17;67.99;99530.50;5053209;28;20087;-58
2022/06/25 10:20:10;;;;;;;2.28;1.80;;;;;;;19.17;68.14;99513.88;5053414;28;20518;-58
2022/06/25 10:22:56;;;;;;;5.60;2.05;;;;;;;19.19;68.03;99526.97;5053602;28;20530;-57
2022/06/25 10:25:40;;;;;;;4.47;2.58;;;;;;;19.19;68.17;99519.09;5037962;28;20091;-57
2022/06/25 10:28:28;;;;;;;5.18;2.05;;;;;;;19.17;68.24;99517.38;5053021;28;20044;-56
2022/06/25 10:31:17;;;;;;;4.05;2.55;;;;;;;19.19;68.12;99522.56;5038620;28;20111;-57
2022/06/25 10:34:03;;;;;;;2.65;1.80;;;;;;;19.19;68.13;99516.47;5038310;28;20048;-58
2022/06/25 10:36:51;;;;;;;12.32;2.13;;;;;;;19.21;68.13;99517.28;5038376;28;20160;-56
2022/06/25 10:39:36;;;;;;;3.33;2.10;;;;;;;19.20;68.25;99512.94;5038629;28;20068;-56
2022/06/25 10:45:25;;;;;;;4.20;2.00;;;;;;;19.23;68.06;99512.88;5053042;28;20076;-57
2022/06/25 10:48:09;;;;;;;6.10;2.50;;;;;;;19.24;68.09;99511.94;5038191;28;20087;-57
2022/06/25 10:50:54;;;;;;;4.22;2.08;;;;;;;19.25;68.30;99508.41;5053475;28;20439;-55
2022/06/25 10:53:40;;;;;;;5.47;1.83;;;;;;;19.25;68.19;99516.28;5053202;28;20098;-56
2022/06/25 10:56:26;;;;;;;3.53;2.00;;;;;;;19.26;67.91;99512.75;5052857;28;20106;-55
2022/06/25 10:59:45;;;;;;;3.25;2.17;;;;;;;19.28;67.88;99516.19;5037845;28;20056;-55
2022/06/25 11:02:40;;;;;;;5.53;2.15;;;;;;;19.27;68.47;99517.09;5052806;28;20519;-56
2022/06/25 11:05:24;;;;;;;;;;;;;;;19.25;67.97;99516.28;5053075;28;20047;-56
2022/06/25 11:08:08;;;;;;;3.67;2.28;;;;;;;19.25;68.06;99517.16;5037874;28;19927;-56
2022/06/25 11:10:52;;;;;;;4.32;2.22;;;;;;;19.25;68.08;99516.28;5052980;28;20409;-56
2022/06/25 11:13:40;;;;;;;2.95;2.30;;;;;;;19.27;68.11;99517.09;5053423;28;20439;-55
2022/06/25 11:16:24;;;;;;;5.50;2.20;;;;;;;19.26;68.10;99521.50;5037813;28;20052;-56
2022/06/25 11:19:09;;;;;;;7.18;2.17;;;;;;;19.29;68.15;99524.06;5052780;28;20052;-55
2022/06/25 11:21:53;;;;;;;4.88;2.28;;;;;;;19.29;68.06;99516.19;5053189;28;20064;-55
2022/06/25 11:28:47;;;;;;;3.65;2.17;;;;;;;19.29;68.16;99518.81;5054283;28;20052;-56
2022/06/25 11:30:47;;;;;;;3.58;2.08;;;;;;;19.28;68.13;99526.72;5056752;28;20047;-57
2022/06/25 11:33:34;;;;;;;4.88;1.92;;;;;;;19.29;68.13;99523.19;5041707;28;20047;-57
2022/06/25 11:36:20;;;;;;;3.58;1.90;;;;;;;19.30;68.04;99523.16;5056651;28;20130;-57
2022/06/25 11:39:04;;;;;;;3.58;2.10;;;;;;;19.32;68.28;99517.84;5041221;28;20052;-55
2022/06/25 11:41:51;;;;;;;2.80;2.03;;;;;;;19.33;68.19;99520.41;5056462;28;20102;-56
2022/06/25 11:44:44;;;;;;;5.82;1.85;;;;;;;19.36;68.18;99515.97;5041607;28;20579;-57
2022/06/25 11:47:32;;;;;;;6.40;2.55;;;;;;;19.38;67.96;99514.19;5041349;28;20479;-57
2022/06/25 11:50:17;;;;;;;3.63;2.03;;;;;;;19.37;68.05;99513.31;5041504;28;20532;-57
2022/06/25 11:53:01;;;;;;;3.80;1.80;;;;;;;19.37;68.15;99510.69;5056595;28;20083;-57
2022/06/25 11:56:02;;;;;;;3.40;2.13;;;;;;;19.39;67.87;99502.75;5056406;28;20102;-57
2022/06/25 11:58:47;;;;;;;3.10;1.55;;;;;;;19.39;68.01;99502.75;5041475;28;20122;-57
2022/06/25 12:01:30;;;;;;;1.90;1.73;;;;;;;19.39;67.92;99508.03;5040868;28;20044;-57
2022/06/25 12:04:15;;;;;;;5.22;2.13;;;;;;;19.40;68.21;99500.06;5040756;28;20135;-57
2022/06/25 12:06:59;;;;;;;3.53;1.75;;;;;;;19.42;67.89;99513.19;5056148;28;20059;-57
2022/06/25 12:09:43;;;;;;;3.50;1.70;;;;;;;19.42;67.98;99506.16;5040647;28;20044;-56
2022/06/25 12:12:28;;;;;;;4.22;1.83;;;;;;;19.43;67.98;99501.78;5040825;28;20052;-57
2022/06/25 12:15:12;;;;;;;2.00;1.67;;;;;;;19.43;67.90;99507.88;5040999;28;20196;-57
2022/06/25 12:18:03;;;;;;;;;;;;;;;19.43;67.75;99505.25;5055996;28;20044;-57
2022/06/25 12:20:54;;;;;;;5.10;1.70;;;;;;;19.43;67.95;99505.25;5040901;28;20429;-57
2022/06/25 12:23:55;;;;;;;2.13;1.45;;;;;;;19.44;67.89;99504.34;5041010;28;20052;-57
2022/06/25 12:26:43;;;;;;;4.45;1.98;;;;;;;19.46;68.00;99496.44;5040477;28;20424;-57
2022/06/25 12:29:27;;;;;;;1.85;1.48;;;;;;;19.45;68.07;99506.06;5040755;28;20463;-56
2022/06/25 12:32:11;;;;;;;4.03;1.75;;;;;;;19.44;67.63;99499.09;5055887;28;20188;-56
2022/06/25 12:34:55;;;;;;;2.55;1.60;;;;;;;19.45;68.00;99503.44;5055104;28;20179;-55
2022/06/25 12:37:39;;;;;;;2.80;1.70;;;;;;;19.44;67.86;99506.13;5039367;28;20098;-56
2022/06/25 12:40:23;;;;;;;2.67;1.80;;;;;;;19.46;67.78;99506.94;5040467;28;20140;-57
2022/06/25 12:43:09;;;;;;;7.20;2.10;;;;;;;19.47;67.67;99500.75;5055614;28;20137;-57
2022/06/25 12:45:54;;;;;;;2.05;1.75;;;;;;;19.46;67.84;99507.78;5055274;28;20106;-57
2022/06/25 12:48:38;;;;;;;2.55;1.75;;;;;;;19.48;67.70;99502.47;5055408;28;20126;-57
2022/06/25 12:51:27;;;;;;;3.90;1.48;;;;;;;19.47;67.65;99501.63;5055337;28;20138;-56
2022/06/25 12:54:11;;;;;;;4.55;1.58;;;;;;;19.49;67.51;99498.94;5040360;28;20094;-56
2022/06/25 12:56:55;;;;;;;2.20;1.40;;;;;;;19.48;67.46;99502.47;5054592;28;20044;-56
2022/06/25 12:59:44;;;;;;;3.97;2.17;;;;;;;19.47;67.61;99501.63;5055062;28;20128;-55
2022/06/25 13:02:28;;;;;;;1.98;1.65;;;;;;;19.48;67.76;99500.72;5054505;28;20103;-56
2022/06/25 13:05:16;;;;;;;4.35;1.98;;;;;;;19.48;67.48;99500.72;5055095;28;20047;-55
2022/06/25 13:08:01;;;;;;;2.92;2.03;;;;;;;19.48;67.52;99497.22;5039773;28;20083;-56
2022/06/25 13:10:47;;;;;;;2.30;1.70;;;;;;;19.49;67.61;99485.81;5040065;28;20087;-56
2022/06/25 13:13:32;;;;;;;3.97;1.25;;;;;;;19.51;67.63;99486.63;5054884;28;20103;-56
2022/06/25 13:16:17;;;;;;;2.95;1.80;;;;;;;19.50;67.44;99486.69;5039633;28;20076;-55